sensor_id;sensor_type;location;lat;lon;timestamp;pressure;altitude;pressure_sealevel;temperature
12007;BMP180;6062;47.294;12.182;2023-02-18T00:01:20;81080.00;;;8.70
12007;BMP180;6062;47.294;12.182;2023-02-18T00:03:46;81069.00;;;8.70
12007;BMP180;6062;47.294;12.182;2023-02-18T00:06:22;81079.00;;;8.70
12007;BMP180;6062;47.294;12.182;2023-02-18T00:08:50;81078.00;;;8.70
12007;BMP180;6062;47.294;12.182;2023-02-18T00:11:18;81078.00;;;8.70
12007;BMP180;6062;47.294;12.182;2023-02-18T00:13:53;81060.00;;;8.70
12007;BMP180;6062;47.294;12.182;2023-02-18T00:16:20;81070.00;;;8.60
12007;BMP180;6062;47.294;12.182;2023-02-18T00:18:47;81049.00;;;8.60
12007;BMP180;6062;47.294;12.182;2023-02-18T00:21:13;81067.00;;;8.60
12007;BMP180;6062;47.294;12.182;2023-02-18T00:23:39;81053.00;;;8.50
12007;BMP180;6062;47.294;12.182;2023-02-18T00:26:09;81049.00;;;8.50
12007;BMP180;6062;47.294;12.182;2023-02-18T00:28:36;81051.00;;;8.50
12007;BMP180;6062;47.294;12.182;2023-02-18T00:31:10;81054.00;;;8.50
12007;BMP180;6062;47.294;12.182;2023-02-18T00:33:37;81048.00;;;8.50
12007;BMP180;6062;47.294;12.182;2023-02-18T00:36:10;81053.00;;;8.40
12007;BMP180;6062;47.294;12.182;2023-02-18T00:38:36;81049.00;;;8.40
12007;BMP180;6062;47.294;12.182;2023-02-18T00:41:03;81034.00;;;8.40
12007;BMP180;6062;47.294;12.182;2023-02-18T00:43:29;81038.00;;;8.40
12007;BMP180;6062;47.294;12.182;2023-02-18T00:45:54;81037.00;;;8.40
12007;BMP180;6062;47.294;12.182;2023-02-18T00:48:20;81035.00;;;8.50
12007;BMP180;6062;47.294;12.182;2023-02-18T00:50:46;81035.00;;;8.40
12007;BMP180;6062;47.294;12.182;2023-02-18T00:53:12;81043.00;;;8.50
12007;BMP180;6062;47.294;12.182;2023-02-18T00:55:45;81026.00;;;8.40
12007;BMP180;6062;47.294;12.182;2023-02-18T00:58:13;81026.00;;;8.40
12007;BMP180;6062;47.294;12.182;2023-02-18T01:00:39;81036.00;;;8.40
12007;BMP180;6062;47.294;12.182;2023-02-18T01:03:06;81026.00;;;8.40
12007;BMP180;6062;47.294;12.182;2023-02-18T01:05:36;81040.00;;;8.40
12007;BMP180;6062;47.294;12.182;2023-02-18T01:08:02;81029.00;;;8.40
12007;BMP180;6062;47.294;12.182;2023-02-18T01:10:29;81040.00;;;8.40
12007;BMP180;6062;47.294;12.182;2023-02-18T01:12:55;81035.00;;;8.40
12007;BMP180;6062;47.294;12.182;2023-02-18T01:15:21;81034.00;;;8.40
12007;BMP180;6062;47.294;12.182;2023-02-18T01:17:47;81037.00;;;8.40
12007;BMP180;6062;47.294;12.182;2023-02-18T01:20:14;81039.00;;;8.40
12007;BMP180;6062;47.294;12.182;2023-02-18T01:22:40;81038.00;;;8.40
12007;BMP180;6062;47.294;12.182;2023-02-18T01:25:08;81030.00;;;8.50
12007;BMP180;6062;47.294;12.182;2023-02-18T01:27:34;81030.00;;;8.50
12007;BMP180;6062;47.294;12.182;2023-02-18T01:29:59;81030.00;;;8.40
12007;BMP180;6062;47.294;12.182;2023-02-18T01:32:25;81029.00;;;8.40
12007;BMP180;6062;47.294;12.182;2023-02-18T01:34:51;81016.00;;;8.40
12007;BMP180;6062;47.294;12.182;2023-02-18T01:37:16;81007.00;;;8.40
12007;BMP180;6062;47.294;12.182;2023-02-18T01:39:42;81018.00;;;8.40
12007;BMP180;6062;47.294;12.182;2023-02-18T01:42:22;81011.00;;;8.40
12007;BMP180;6062;47.294;12.182;2023-02-18T01:44:49;81006.00;;;8.40
12007;BMP180;6062;47.294;12.182;2023-02-18T01:47:16;81011.00;;;8.40
12007;BMP180;6062;47.294;12.182;2023-02-18T01:49:45;81002.00;;;8.40
12007;BMP180;6062;47.294;12.182;2023-02-18T01:52:22;81008.00;;;8.50
12007;BMP180;6062;47.294;12.182;2023-02-18T01:54:54;81001.00;;;8.50
12007;BMP180;6062;47.294;12.182;2023-02-18T01:57:28;81010.00;;;8.50
12007;BMP180;6062;47.294;12.182;2023-02-18T01:59:58;80992.00;;;8.40
12007;BMP180;6062;47.294;12.182;2023-02-18T02:02:27;80993.00;;;8.40
12007;BMP180;6062;47.294;12.182;2023-02-18T02:04:53;80994.00;;;8.40
12007;BMP180;6062;47.294;12.182;2023-02-18T02:07:21;80982.00;;;8.30
12007;BMP180;6062;47.294;12.182;2023-02-18T02:09:50;80995.00;;;8.30
12007;BMP180;6062;47.294;12.182;2023-02-18T02:27:16;80990.00;;;8.20
12007;BMP180;6062;47.294;12.182;2023-02-18T02:30:09;80986.00;;;8.30
12007;BMP180;6062;47.294;12.182;2023-02-18T02:36:15;80980.00;;;8.20
12007;BMP180;6062;47.294;12.182;2023-02-18T02:42:08;80987.00;;;8.30
12007;BMP180;6062;47.294;12.182;2023-02-18T02:47:50;80973.00;;;8.30
12007;BMP180;6062;47.294;12.182;2023-02-18T02:50:27;80977.00;;;8.30
12007;BMP180;6062;47.294;12.182;2023-02-18T02:53:01;80969.00;;;8.40
12007;BMP180;6062;47.294;12.182;2023-02-18T02:55:29;80963.00;;;8.30
12007;BMP180;6062;47.294;12.182;2023-02-18T02:57:55;80956.00;;;8.30
12007;BMP180;6062;47.294;12.182;2023-02-18T03:00:54;80965.00;;;8.20
12007;BMP180;6062;47.294;12.182;2023-02-18T03:03:48;80954.00;;;8.20
12007;BMP180;6062;47.294;12.182;2023-02-18T03:06:30;80965.00;;;8.20
12007;BMP180;6062;47.294;12.182;2023-02-18T03:09:38;80956.00;;;8.20
12007;BMP180;6062;47.294;12.182;2023-02-18T03:12:24;80967.00;;;8.20
12007;BMP180;6062;47.294;12.182;2023-02-18T03:15:22;80948.00;;;8.10
12007;BMP180;6062;47.294;12.182;2023-02-18T03:18:01;80955.00;;;8.10
12007;BMP180;6062;47.294;12.182;2023-02-18T03:20:54;80943.00;;;8.10
12007;BMP180;6062;47.294;12.182;2023-02-18T03:23:28;80938.00;;;8.20
12007;BMP180;6062;47.294;12.182;2023-02-18T03:25:59;80951.00;;;8.20
12007;BMP180;6062;47.294;12.182;2023-02-18T03:28:28;80950.00;;;8.20
12007;BMP180;6062;47.294;12.182;2023-02-18T03:31:11;80951.00;;;8.20
12007;BMP180;6062;47.294;12.182;2023-02-18T03:33:59;80942.00;;;8.20
12007;BMP180;6062;47.294;12.182;2023-02-18T03:36:27;80942.00;;;8.20
12007;BMP180;6062;47.294;12.182;2023-02-18T03:39:06;80940.00;;;8.20
12007;BMP180;6062;47.294;12.182;2023-02-18T03:41:34;80940.00;;;8.20
12007;BMP180;6062;47.294;12.182;2023-02-18T03:44:04;80944.00;;;8.20
12007;BMP180;6062;47.294;12.182;2023-02-18T03:46:31;80928.00;;;8.20
12007;BMP180;6062;47.294;12.182;2023-02-18T03:48:57;80941.00;;;8.30
12007;BMP180;6062;47.294;12.182;2023-02-18T03:51:23;80929.00;;;8.30
12007;BMP180;6062;47.294;12.182;2023-02-18T03:53:49;80947.00;;;8.30
12007;BMP180;6062;47.294;12.182;2023-02-18T03:56:16;80932.00;;;8.30
12007;BMP180;6062;47.294;12.182;2023-02-18T03:58:42;80946.00;;;8.30
12007;BMP180;6062;47.294;12.182;2023-02-18T04:01:08;80938.00;;;8.30
12007;BMP180;6062;47.294;12.182;2023-02-18T04:03:33;80942.00;;;8.30
12007;BMP180;6062;47.294;12.182;2023-02-18T04:05:59;80939.00;;;8.30
12007;BMP180;6062;47.294;12.182;2023-02-18T04:08:25;80940.00;;;8.30
12007;BMP180;6062;47.294;12.182;2023-02-18T04:10:51;80938.00;;;8.30
12007;BMP180;6062;47.294;12.182;2023-02-18T04:13:16;80935.00;;;8.30
12007;BMP180;6062;47.294;12.182;2023-02-18T04:15:44;80929.00;;;8.30
12007;BMP180;6062;47.294;12.182;2023-02-18T04:18:11;80945.00;;;8.30
12007;BMP180;6062;47.294;12.182;2023-02-18T04:20:37;80929.00;;;8.30
12007;BMP180;6062;47.294;12.182;2023-02-18T04:23:04;80930.00;;;8.30
12007;BMP180;6062;47.294;12.182;2023-02-18T04:25:30;80945.00;;;8.30
12007;BMP180;6062;47.294;12.182;2023-02-18T04:27:55;80938.00;;;8.30
12007;BMP180;6062;47.294;12.182;2023-02-18T04:30:21;80929.00;;;8.40
12007;BMP180;6062;47.294;12.182;2023-02-18T04:32:47;80930.00;;;8.30
12007;BMP180;6062;47.294;12.182;2023-02-18T04:35:13;80938.00;;;8.30
12007;BMP180;6062;47.294;12.182;2023-02-18T04:37:38;80932.00;;;8.30
12007;BMP180;6062;47.294;12.182;2023-02-18T04:40:05;80929.00;;;8.30
12007;BMP180;6062;47.294;12.182;2023-02-18T04:42:31;80938.00;;;8.30
12007;BMP180;6062;47.294;12.182;2023-02-18T04:44:57;80925.00;;;8.30
12007;BMP180;6062;47.294;12.182;2023-02-18T04:47:23;80939.00;;;8.30
12007;BMP180;6062;47.294;12.182;2023-02-18T04:49:48;80934.00;;;8.30
12007;BMP180;6062;47.294;12.182;2023-02-18T04:52:14;80934.00;;;8.30
12007;BMP180;6062;47.294;12.182;2023-02-18T04:54:40;80922.00;;;8.30
12007;BMP180;6062;47.294;12.182;2023-02-18T04:57:06;80929.00;;;8.30
12007;BMP180;6062;47.294;12.182;2023-02-18T04:59:31;80922.00;;;8.30
12007;BMP180;6062;47.294;12.182;2023-02-18T05:01:57;80928.00;;;8.30
12007;BMP180;6062;47.294;12.182;2023-02-18T05:04:23;80928.00;;;8.30
12007;BMP180;6062;47.294;12.182;2023-02-18T05:06:49;80924.00;;;8.40
12007;BMP180;6062;47.294;12.182;2023-02-18T05:09:14;80913.00;;;8.40
12007;BMP180;6062;47.294;12.182;2023-02-18T05:11:41;80904.00;;;8.40
12007;BMP180;6062;47.294;12.182;2023-02-18T05:14:07;80898.00;;;8.40
12007;BMP180;6062;47.294;12.182;2023-02-18T05:16:33;80912.00;;;8.50
12007;BMP180;6062;47.294;12.182;2023-02-18T05:18:59;80915.00;;;8.50
12007;BMP180;6062;47.294;12.182;2023-02-18T05:21:25;80915.00;;;8.50
12007;BMP180;6062;47.294;12.182;2023-02-18T05:23:51;80904.00;;;8.50
12007;BMP180;6062;47.294;12.182;2023-02-18T05:26:16;80917.00;;;8.60
12007;BMP180;6062;47.294;12.182;2023-02-18T05:28:42;80900.00;;;8.60
12007;BMP180;6062;47.294;12.182;2023-02-18T05:31:08;80910.00;;;8.60
12007;BMP180;6062;47.294;12.182;2023-02-18T05:33:34;80901.00;;;8.60
12007;BMP180;6062;47.294;12.182;2023-02-18T05:36:00;80907.00;;;8.60
12007;BMP180;6062;47.294;12.182;2023-02-18T05:38:26;80912.00;;;8.60
12007;BMP180;6062;47.294;12.182;2023-02-18T05:40:51;80903.00;;;8.60
12007;BMP180;6062;47.294;12.182;2023-02-18T05:43:17;80910.00;;;8.60
12007;BMP180;6062;47.294;12.182;2023-02-18T05:45:43;80912.00;;;8.60
12007;BMP180;6062;47.294;12.182;2023-02-18T05:48:08;80908.00;;;8.60
12007;BMP180;6062;47.294;12.182;2023-02-18T05:50:34;80914.00;;;8.60
12007;BMP180;6062;47.294;12.182;2023-02-18T05:53:00;80912.00;;;8.60
12007;BMP180;6062;47.294;12.182;2023-02-18T05:55:26;80909.00;;;8.60
12007;BMP180;6062;47.294;12.182;2023-02-18T05:57:52;80911.00;;;8.60
12007;BMP180;6062;47.294;12.182;2023-02-18T06:00:18;80909.00;;;8.60
12007;BMP180;6062;47.294;12.182;2023-02-18T06:02:44;80920.00;;;8.70
12007;BMP180;6062;47.294;12.182;2023-02-18T06:05:10;80912.00;;;8.70
12007;BMP180;6062;47.294;12.182;2023-02-18T06:07:36;80919.00;;;8.70
12007;BMP180;6062;47.294;12.182;2023-02-18T06:10:03;80915.00;;;8.70
12007;BMP180;6062;47.294;12.182;2023-02-18T06:12:29;80914.00;;;8.70
12007;BMP180;6062;47.294;12.182;2023-02-18T06:14:55;80914.00;;;8.70
12007;BMP180;6062;47.294;12.182;2023-02-18T06:17:20;80908.00;;;8.70
12007;BMP180;6062;47.294;12.182;2023-02-18T06:19:47;80915.00;;;8.70
12007;BMP180;6062;47.294;12.182;2023-02-18T06:22:14;80923.00;;;8.70
12007;BMP180;6062;47.294;12.182;2023-02-18T06:24:40;80923.00;;;8.70
12007;BMP180;6062;47.294;12.182;2023-02-18T06:27:06;80918.00;;;8.70
12007;BMP180;6062;47.294;12.182;2023-02-18T06:29:32;80910.00;;;8.80
12007;BMP180;6062;47.294;12.182;2023-02-18T06:31:58;80923.00;;;8.80
12007;BMP180;6062;47.294;12.182;2023-02-18T06:34:25;80907.00;;;8.80
12007;BMP180;6062;47.294;12.182;2023-02-18T06:36:51;80926.00;;;8.90
12007;BMP180;6062;47.294;12.182;2023-02-18T06:39:17;80920.00;;;8.90
12007;BMP180;6062;47.294;12.182;2023-02-18T06:41:43;80915.00;;;9.00
12007;BMP180;6062;47.294;12.182;2023-02-18T06:44:09;80908.00;;;9.10
12007;BMP180;6062;47.294;12.182;2023-02-18T06:46:36;80900.00;;;9.10
12007;BMP180;6062;47.294;12.182;2023-02-18T06:49:02;80914.00;;;9.20
12007;BMP180;6062;47.294;12.182;2023-02-18T06:51:28;80915.00;;;9.30
12007;BMP180;6062;47.294;12.182;2023-02-18T06:53:54;80910.00;;;9.40
12007;BMP180;6062;47.294;12.182;2023-02-18T06:56:20;80911.00;;;9.60
12007;BMP180;6062;47.294;12.182;2023-02-18T06:58:45;80908.00;;;9.90
12007;BMP180;6062;47.294;12.182;2023-02-18T07:01:11;80914.00;;;10.20
12007;BMP180;6062;47.294;12.182;2023-02-18T07:03:37;80911.00;;;10.60
12007;BMP180;6062;47.294;12.182;2023-02-18T07:06:03;80888.00;;;11.00
12007;BMP180;6062;47.294;12.182;2023-02-18T07:08:28;80909.00;;;11.50
12007;BMP180;6062;47.294;12.182;2023-02-18T07:10:55;80899.00;;;12.00
12007;BMP180;6062;47.294;12.182;2023-02-18T07:13:21;80913.00;;;12.40
12007;BMP180;6062;47.294;12.182;2023-02-18T07:15:47;80900.00;;;12.80
12007;BMP180;6062;47.294;12.182;2023-02-18T07:18:12;80909.00;;;13.40
12007;BMP180;6062;47.294;12.182;2023-02-18T07:20:38;80921.00;;;14.00
12007;BMP180;6062;47.294;12.182;2023-02-18T07:23:04;80920.00;;;14.70
12007;BMP180;6062;47.294;12.182;2023-02-18T07:25:30;80918.00;;;15.40
12007;BMP180;6062;47.294;12.182;2023-02-18T07:28:02;80912.00;;;16.20
12007;BMP180;6062;47.294;12.182;2023-02-18T07:30:28;80921.00;;;17.00
12007;BMP180;6062;47.294;12.182;2023-02-18T07:32:53;80919.00;;;17.70
12007;BMP180;6062;47.294;12.182;2023-02-18T07:35:19;80923.00;;;18.50
12007;BMP180;6062;47.294;12.182;2023-02-18T07:37:50;80924.00;;;19.30
12007;BMP180;6062;47.294;12.182;2023-02-18T07:40:19;80918.00;;;20.10
12007;BMP180;6062;47.294;12.182;2023-02-18T07:42:45;80944.00;;;20.80
12007;BMP180;6062;47.294;12.182;2023-02-18T07:45:12;80931.00;;;21.50
12007;BMP180;6062;47.294;12.182;2023-02-18T07:47:38;80947.00;;;22.10
12007;BMP180;6062;47.294;12.182;2023-02-18T07:50:05;80945.00;;;22.70
12007;BMP180;6062;47.294;12.182;2023-02-18T07:52:31;80943.00;;;23.10
12007;BMP180;6062;47.294;12.182;2023-02-18T07:54:57;80950.00;;;23.40
12007;BMP180;6062;47.294;12.182;2023-02-18T07:57:22;80948.00;;;23.70
12007;BMP180;6062;47.294;12.182;2023-02-18T07:59:48;80948.00;;;23.90
12007;BMP180;6062;47.294;12.182;2023-02-18T08:02:21;80952.00;;;24.00
12007;BMP180;6062;47.294;12.182;2023-02-18T08:04:47;80942.00;;;23.70
12007;BMP180;6062;47.294;12.182;2023-02-18T08:07:15;80928.00;;;23.00
12007;BMP180;6062;47.294;12.182;2023-02-18T08:09:42;80948.00;;;22.60
12007;BMP180;6062;47.294;12.182;2023-02-18T08:12:08;80941.00;;;22.50
12007;BMP180;6062;47.294;12.182;2023-02-18T08:14:34;80945.00;;;22.50
12007;BMP180;6062;47.294;12.182;2023-02-18T08:16:59;80946.00;;;22.40
12007;BMP180;6062;47.294;12.182;2023-02-18T08:19:25;80962.00;;;22.30
12007;BMP180;6062;47.294;12.182;2023-02-18T08:21:51;80954.00;;;21.90
12007;BMP180;6062;47.294;12.182;2023-02-18T08:24:17;80955.00;;;21.30
12007;BMP180;6062;47.294;12.182;2023-02-18T08:26:43;80946.00;;;20.90
12007;BMP180;6062;47.294;12.182;2023-02-18T08:29:09;80938.00;;;21.10
12007;BMP180;6062;47.294;12.182;2023-02-18T08:31:35;80947.00;;;21.20
12007;BMP180;6062;47.294;12.182;2023-02-18T08:34:01;80941.00;;;21.60
12007;BMP180;6062;47.294;12.182;2023-02-18T08:36:29;80939.00;;;22.00
12007;BMP180;6062;47.294;12.182;2023-02-18T08:38:56;80944.00;;;22.70
12007;BMP180;6062;47.294;12.182;2023-02-18T08:41:22;80932.00;;;23.30
12007;BMP180;6062;47.294;12.182;2023-02-18T08:43:48;80957.00;;;24.00
12007;BMP180;6062;47.294;12.182;2023-02-18T08:46:15;80937.00;;;24.40
12007;BMP180;6062;47.294;12.182;2023-02-18T08:48:42;80940.00;;;24.50
12007;BMP180;6062;47.294;12.182;2023-02-18T08:51:20;80906.00;;;24.30
12007;BMP180;6062;47.294;12.182;2023-02-18T08:53:47;80952.00;;;24.00
12007;BMP180;6062;47.294;12.182;2023-02-18T08:56:14;80957.00;;;23.90
12007;BMP180;6062;47.294;12.182;2023-02-18T08:58:42;80926.00;;;24.00
12007;BMP180;6062;47.294;12.182;2023-02-18T09:01:10;80949.00;;;23.90
12007;BMP180;6062;47.294;12.182;2023-02-18T09:03:37;80952.00;;;23.90
12007;BMP180;6062;47.294;12.182;2023-02-18T09:06:04;80948.00;;;24.10
12007;BMP180;6062;47.294;12.182;2023-02-18T09:08:30;80950.00;;;24.20
12007;BMP180;6062;47.294;12.182;2023-02-18T09:10:59;80945.00;;;24.40
12007;BMP180;6062;47.294;12.182;2023-02-18T09:13:26;80949.00;;;24.70
12007;BMP180;6062;47.294;12.182;2023-02-18T09:16:09;80953.00;;;25.10
12007;BMP180;6062;47.294;12.182;2023-02-18T09:18:35;80942.00;;;25.70
12007;BMP180;6062;47.294;12.182;2023-02-18T09:21:03;80943.00;;;26.40
12007;BMP180;6062;47.294;12.182;2023-02-18T09:23:31;80953.00;;;27.00
12007;BMP180;6062;47.294;12.182;2023-02-18T09:25:57;80947.00;;;27.40
12007;BMP180;6062;47.294;12.182;2023-02-18T09:28:23;80924.00;;;27.50
12007;BMP180;6062;47.294;12.182;2023-02-18T09:30:49;80946.00;;;27.40
12007;BMP180;6062;47.294;12.182;2023-02-18T09:33:16;80941.00;;;27.40
12007;BMP180;6062;47.294;12.182;2023-02-18T09:35:45;80951.00;;;27.60
12007;BMP180;6062;47.294;12.182;2023-02-18T09:38:14;80967.00;;;27.90
12007;BMP180;6062;47.294;12.182;2023-02-18T09:40:48;80945.00;;;28.10
12007;BMP180;6062;47.294;12.182;2023-02-18T09:43:28;80960.00;;;28.30
12007;BMP180;6062;47.294;12.182;2023-02-18T09:45:55;80949.00;;;28.40
12007;BMP180;6062;47.294;12.182;2023-02-18T09:48:32;80952.00;;;28.60
12007;BMP180;6062;47.294;12.182;2023-02-18T09:50:59;80943.00;;;28.90
12007;BMP180;6062;47.294;12.182;2023-02-18T09:53:25;80965.00;;;29.00
12007;BMP180;6062;47.294;12.182;2023-02-18T09:55:56;80967.00;;;29.00
12007;BMP180;6062;47.294;12.182;2023-02-18T09:58:30;80956.00;;;28.70
12007;BMP180;6062;47.294;12.182;2023-02-18T10:01:09;80959.00;;;28.60
12007;BMP180;6062;47.294;12.182;2023-02-18T10:03:36;80957.00;;;28.40
12007;BMP180;6062;47.294;12.182;2023-02-18T10:06:09;80960.00;;;28.20
12007;BMP180;6062;47.294;12.182;2023-02-18T10:08:44;80967.00;;;28.30
12007;BMP180;6062;47.294;12.182;2023-02-18T10:11:22;80960.00;;;28.20
12007;BMP180;6062;47.294;12.182;2023-02-18T10:13:49;80955.00;;;28.00
12007;BMP180;6062;47.294;12.182;2023-02-18T10:16:18;80964.00;;;27.90
12007;BMP180;6062;47.294;12.182;2023-02-18T10:18:48;80960.00;;;28.10
12007;BMP180;6062;47.294;12.182;2023-02-18T10:21:20;80961.00;;;28.30
12007;BMP180;6062;47.294;12.182;2023-02-18T10:26:43;80957.00;;;28.00
12007;BMP180;6062;47.294;12.182;2023-02-18T10:29:18;80959.00;;;28.20
12007;BMP180;6062;47.294;12.182;2023-02-18T10:31:51;80946.00;;;28.50
12007;BMP180;6062;47.294;12.182;2023-02-18T10:34:41;80949.00;;;29.00
12007;BMP180;6062;47.294;12.182;2023-02-18T10:40:09;80953.00;;;29.50
12007;BMP180;6062;47.294;12.182;2023-02-18T10:45:41;80945.00;;;29.50
12007;BMP180;6062;47.294;12.182;2023-02-18T10:50:51;80933.00;;;28.60
12007;BMP180;6062;47.294;12.182;2023-02-18T10:53:30;80935.00;;;28.10
12007;BMP180;6062;47.294;12.182;2023-02-18T10:55:58;80933.00;;;27.90
12007;BMP180;6062;47.294;12.182;2023-02-18T10:58:42;80931.00;;;27.50
12007;BMP180;6062;47.294;12.182;2023-02-18T11:01:19;80934.00;;;27.00
12007;BMP180;6062;47.294;12.182;2023-02-18T11:03:50;80921.00;;;26.80
12007;BMP180;6062;47.294;12.182;2023-02-18T11:08:58;80926.00;;;26.30
12007;BMP180;6062;47.294;12.182;2023-02-18T11:11:36;80911.00;;;25.90
12007;BMP180;6062;47.294;12.182;2023-02-18T11:14:06;80914.00;;;25.50
12007;BMP180;6062;47.294;12.182;2023-02-18T11:16:42;80911.00;;;25.10
12007;BMP180;6062;47.294;12.182;2023-02-18T11:19:32;80896.00;;;24.90
12007;BMP180;6062;47.294;12.182;2023-02-18T11:22:18;80903.00;;;24.70
12007;BMP180;6062;47.294;12.182;2023-02-18T11:24:46;80895.00;;;24.60
12007;BMP180;6062;47.294;12.182;2023-02-18T11:27:27;80891.00;;;24.20
12007;BMP180;6062;47.294;12.182;2023-02-18T11:30:00;80893.00;;;24.00
12007;BMP180;6062;47.294;12.182;2023-02-18T11:32:29;80897.00;;;23.80
12007;BMP180;6062;47.294;12.182;2023-02-18T11:34:56;80897.00;;;23.80
12007;BMP180;6062;47.294;12.182;2023-02-18T11:37:23;80877.00;;;24.10
12007;BMP180;6062;47.294;12.182;2023-02-18T11:39:53;80880.00;;;24.30
12007;BMP180;6062;47.294;12.182;2023-02-18T11:42:23;80876.00;;;24.60
12007;BMP180;6062;47.294;12.182;2023-02-18T11:44:56;80863.00;;;24.90
12007;BMP180;6062;47.294;12.182;2023-02-18T11:47:34;80866.00;;;25.00
12007;BMP180;6062;47.294;12.182;2023-02-18T11:52:40;80861.00;;;25.30
12007;BMP180;6062;47.294;12.182;2023-02-18T11:55:23;80847.00;;;25.50
12007;BMP180;6062;47.294;12.182;2023-02-18T11:57:59;80842.00;;;25.80
12007;BMP180;6062;47.294;12.182;2023-02-18T12:00:47;80854.00;;;26.10
12007;BMP180;6062;47.294;12.182;2023-02-18T12:03:52;80845.00;;;26.10
12007;BMP180;6062;47.294;12.182;2023-02-18T12:06:53;80842.00;;;26.00
12007;BMP180;6062;47.294;12.182;2023-02-18T12:09:42;80842.00;;;25.90
12007;BMP180;6062;47.294;12.182;2023-02-18T12:12:24;80834.00;;;25.90
12007;BMP180;6062;47.294;12.182;2023-02-18T12:14:53;80829.00;;;26.10
12007;BMP180;6062;47.294;12.182;2023-02-18T12:20:42;80831.00;;;26.40
12007;BMP180;6062;47.294;12.182;2023-02-18T12:26:49;80818.00;;;26.00
12007;BMP180;6062;47.294;12.182;2023-02-18T12:42:08;80809.00;;;23.80
12007;BMP180;6062;47.294;12.182;2023-02-18T12:50:30;80810.00;;;22.70
12007;BMP180;6062;47.294;12.182;2023-02-18T13:14:21;80792.00;;;19.50
12007;BMP180;6062;47.294;12.182;2023-02-18T13:16:54;80787.00;;;19.20
12007;BMP180;6062;47.294;12.182;2023-02-18T13:19:32;80786.00;;;19.00
12007;BMP180;6062;47.294;12.182;2023-02-18T13:22:07;80774.00;;;18.80
12007;BMP180;6062;47.294;12.182;2023-02-18T13:24:42;80781.00;;;18.50
12007;BMP180;6062;47.294;12.182;2023-02-18T13:33:21;80772.00;;;17.30
12007;BMP180;6062;47.294;12.182;2023-02-18T13:39:08;80746.00;;;16.70
12007;BMP180;6062;47.294;12.182;2023-02-18T13:41:41;80750.00;;;16.30
12007;BMP180;6062;47.294;12.182;2023-02-18T13:46:52;80751.00;;;15.60
12007;BMP180;6062;47.294;12.182;2023-02-18T13:49:25;80743.00;;;15.30
12007;BMP180;6062;47.294;12.182;2023-02-18T13:51:56;80752.00;;;15.00
12007;BMP180;6062;47.294;12.182;2023-02-18T13:54:44;80748.00;;;14.80
12007;BMP180;6062;47.294;12.182;2023-02-18T13:57:18;80741.00;;;14.60
12007;BMP180;6062;47.294;12.182;2023-02-18T14:00:17;80735.00;;;14.50
12007;BMP180;6062;47.294;12.182;2023-02-18T14:03:00;80733.00;;;14.40
12007;BMP180;6062;47.294;12.182;2023-02-18T14:05:47;80723.00;;;14.20
12007;BMP180;6062;47.294;12.182;2023-02-18T14:08:38;80723.00;;;14.10
12007;BMP180;6062;47.294;12.182;2023-02-18T14:13:48;80721.00;;;13.80
12007;BMP180;6062;47.294;12.182;2023-02-18T14:16:18;80715.00;;;13.70
12007;BMP180;6062;47.294;12.182;2023-02-18T14:23:43;80727.00;;;13.50
12007;BMP180;6062;47.294;12.182;2023-02-18T14:26:22;80714.00;;;13.50
12007;BMP180;6062;47.294;12.182;2023-02-18T14:28:59;80716.00;;;13.40
12007;BMP180;6062;47.294;12.182;2023-02-18T14:31:47;80731.00;;;13.30
12007;BMP180;6062;47.294;12.182;2023-02-18T14:46:19;80736.00;;;13.00
12007;BMP180;6062;47.294;12.182;2023-02-18T14:49:34;80726.00;;;12.90
12007;BMP180;6062;47.294;12.182;2023-02-18T14:52:03;80740.00;;;12.90
12007;BMP180;6062;47.294;12.182;2023-02-18T14:54:30;80726.00;;;12.80
12007;BMP180;6062;47.294;12.182;2023-02-18T14:57:05;80738.00;;;12.80
12007;BMP180;6062;47.294;12.182;2023-02-18T14:59:40;80737.00;;;12.70
12007;BMP180;6062;47.294;12.182;2023-02-18T15:02:23;80735.00;;;12.70
12007;BMP180;6062;47.294;12.182;2023-02-18T15:04:52;80714.00;;;12.60
12007;BMP180;6062;47.294;12.182;2023-02-18T15:07:20;80730.00;;;12.50
12007;BMP180;6062;47.294;12.182;2023-02-18T15:09:55;80732.00;;;12.50
12007;BMP180;6062;47.294;12.182;2023-02-18T15:12:23;80732.00;;;12.40
12007;BMP180;6062;47.294;12.182;2023-02-18T15:14:52;80733.00;;;12.30
12007;BMP180;6062;47.294;12.182;2023-02-18T15:17:24;80734.00;;;12.20
12007;BMP180;6062;47.294;12.182;2023-02-18T15:19:55;80725.00;;;12.20
12007;BMP180;6062;47.294;12.182;2023-02-18T15:22:30;80734.00;;;12.10
12007;BMP180;6062;47.294;12.182;2023-02-18T15:24:56;80734.00;;;12.10
12007;BMP180;6062;47.294;12.182;2023-02-18T15:27:32;80735.00;;;12.00
12007;BMP180;6062;47.294;12.182;2023-02-18T15:30:24;80736.00;;;12.00
12007;BMP180;6062;47.294;12.182;2023-02-18T15:32:56;80737.00;;;11.90
12007;BMP180;6062;47.294;12.182;2023-02-18T15:35:27;80724.00;;;11.90
12007;BMP180;6062;47.294;12.182;2023-02-18T15:37:57;80733.00;;;11.80
12007;BMP180;6062;47.294;12.182;2023-02-18T15:40:33;80721.00;;;11.80
12007;BMP180;6062;47.294;12.182;2023-02-18T15:43:03;80730.00;;;11.70
12007;BMP180;6062;47.294;12.182;2023-02-18T15:45:38;80714.00;;;11.70
12007;BMP180;6062;47.294;12.182;2023-02-18T15:48:06;80733.00;;;11.60
12007;BMP180;6062;47.294;12.182;2023-02-18T15:50:44;80716.00;;;11.60
12007;BMP180;6062;47.294;12.182;2023-02-18T15:53:17;80726.00;;;11.50
12007;BMP180;6062;47.294;12.182;2023-02-18T15:55:49;80730.00;;;11.50
12007;BMP180;6062;47.294;12.182;2023-02-18T15:58:28;80738.00;;;11.50
12007;BMP180;6062;47.294;12.182;2023-02-18T16:01:06;80720.00;;;11.50
12007;BMP180;6062;47.294;12.182;2023-02-18T16:03:45;80733.00;;;11.40
12007;BMP180;6062;47.294;12.182;2023-02-18T16:06:25;80723.00;;;11.30
12007;BMP180;6062;47.294;12.182;2023-02-18T16:09:18;80731.00;;;11.30
12007;BMP180;6062;47.294;12.182;2023-02-18T16:11:58;80734.00;;;11.20
12007;BMP180;6062;47.294;12.182;2023-02-18T16:14:47;80717.00;;;11.10
12007;BMP180;6062;47.294;12.182;2023-02-18T16:17:22;80725.00;;;11.10
12007;BMP180;6062;47.294;12.182;2023-02-18T16:19:59;80728.00;;;11.00
12007;BMP180;6062;47.294;12.182;2023-02-18T16:30:27;80726.00;;;10.90
12007;BMP180;6062;47.294;12.182;2023-02-18T16:32:54;80732.00;;;10.90
12007;BMP180;6062;47.294;12.182;2023-02-18T16:35:22;80736.00;;;10.80
12007;BMP180;6062;47.294;12.182;2023-02-18T16:37:48;80740.00;;;10.80
12007;BMP180;6062;47.294;12.182;2023-02-18T16:40:34;80737.00;;;10.80
12007;BMP180;6062;47.294;12.182;2023-02-18T16:43:12;80732.00;;;10.70